createdAt,value
2016-03-09T00:00:08.128Z,991.15
2016-03-09T00:01:08.131Z,991.17
2016-03-09T00:02:08.117Z,991.18
2016-03-09T00:03:08.119Z,991.09
2016-03-09T00:04:08.108Z,991.13
2016-03-09T00:05:08.110Z,991.09
2016-03-09T00:06:08.097Z,991.1
2016-03-09T00:07:08.099Z,991.06
2016-03-09T00:08:08.118Z,991.07
2016-03-09T00:09:08.090Z,991.03
2016-03-09T00:10:08.093Z,991.03
2016-03-09T00:11:08.095Z,990.99
2016-03-09T00:12:08.098Z,990.96
2016-03-09T00:13:08.069Z,990.96
2016-03-09T00:14:08.071Z,990.93
2016-03-09T00:15:08.090Z,990.93
2016-03-09T00:16:08.062Z,990.9
2016-03-09T00:17:08.064Z,990.91
2016-03-09T00:18:08.051Z,990.91
2016-03-09T00:19:08.054Z,990.86
2016-03-09T00:20:08.056Z,990.86
2016-03-09T00:21:08.043Z,990.86
2016-03-09T00:22:08.030Z,990.8
2016-03-09T00:23:08.017Z,990.81
2016-03-09T00:24:08.020Z,990.77
2016-03-09T00:25:08.008Z,990.81
2016-03-09T00:26:08.011Z,990.8
2016-03-09T00:27:08.013Z,990.8
2016-03-09T00:28:08.000Z,990.77
2016-03-09T00:29:08.003Z,990.73
2016-03-09T00:30:07.989Z,990.74
2016-03-09T00:31:07.992Z,990.7
2016-03-09T00:32:07.986Z,990.71
2016-03-09T00:33:07.973Z,990.72
2016-03-09T00:34:07.975Z,990.72
2016-03-09T00:35:07.978Z,990.72
2016-03-09T00:36:07.965Z,990.75
2016-03-09T00:37:07.967Z,990.74
2016-03-09T00:38:07.955Z,990.75
2016-03-09T00:39:07.958Z,990.71
2016-03-09T00:40:07.944Z,990.69
2016-03-09T00:41:07.947Z,990.67
2016-03-09T00:42:07.950Z,990.61
2016-03-09T00:43:07.936Z,990.63
2016-03-09T00:44:07.939Z,990.57
2016-03-09T00:45:07.927Z,990.63
2016-03-09T00:46:07.929Z,990.59
2016-03-09T00:47:07.916Z,990.6
2016-03-09T00:48:07.903Z,990.58
2016-03-09T00:49:07.907Z,990.61
2016-03-09T00:50:07.909Z,990.57
2016-03-09T00:51:07.896Z,990.54
2016-03-09T00:52:07.898Z,990.51
2016-03-09T00:53:07.885Z,990.48
2016-03-09T00:54:07.888Z,990.45
2016-03-09T00:55:07.876Z,990.41
2016-03-09T00:56:07.878Z,990.35
2016-03-09T00:57:07.865Z,990.38
2016-03-09T00:58:07.868Z,990.38
2016-03-09T00:59:07.854Z,990.34
2016-03-09T01:00:07.857Z,990.34
2016-03-09T01:01:07.845Z,990.33
2016-03-09T01:02:07.847Z,990.29
2016-03-09T01:03:07.850Z,990.24
2016-03-09T01:04:07.837Z,990.25
2016-03-09T01:05:07.840Z,990.3
2016-03-09T01:06:07.830Z,990.24
2016-03-09T01:07:07.823Z,990.22
2016-03-09T01:08:07.809Z,990.22
2016-03-09T01:09:07.812Z,990.21
2016-03-09T01:10:07.815Z,990.18
2016-03-09T01:11:07.802Z,990.19
2016-03-09T01:12:07.804Z,990.19
2016-03-09T01:13:07.792Z,990.2
2016-03-09T01:14:07.795Z,990.21
2016-03-09T01:15:07.781Z,990.17
2016-03-09T01:16:07.769Z,990.18
2016-03-09T01:17:07.772Z,990.2
2016-03-09T01:18:07.758Z,990.17
2016-03-09T01:19:07.761Z,990.19
2016-03-09T01:20:07.763Z,990.17
2016-03-09T01:21:07.751Z,990.19
2016-03-09T01:22:07.738Z,990.17
2016-03-09T01:23:07.772Z,990.19
2016-03-09T01:24:07.728Z,990.18
2016-03-09T01:25:07.730Z,990.2
2016-03-09T01:26:07.717Z,990.2
2016-03-09T01:27:07.720Z,990.15
2016-03-09T01:28:07.722Z,990.22
2016-03-09T01:29:07.694Z,990.23
2016-03-09T01:30:07.696Z,990.19
2016-03-09T01:31:07.700Z,990.21
2016-03-09T01:32:07.687Z,990.2
2016-03-09T01:33:07.674Z,990.21
2016-03-09T01:34:07.677Z,990.21
2016-03-09T01:35:07.663Z,990.19
2016-03-09T01:36:07.651Z,990.15
2016-03-09T01:37:07.654Z,990.11
2016-03-09T01:38:07.656Z,990.09
2016-03-09T01:39:07.642Z,990.09
2016-03-09T01:40:07.629Z,990.14
2016-03-09T01:41:07.632Z,990.11
2016-03-09T01:42:07.620Z,990.11
2016-03-09T01:43:07.623Z,990.09
2016-03-09T01:44:07.609Z,990.1
2016-03-09T01:45:07.597Z,990.08
2016-03-09T01:46:07.599Z,990.05
2016-03-09T01:47:07.587Z,990.01
2016-03-09T01:48:07.589Z,990.01
2016-03-09T01:49:07.575Z,990
2016-03-09T01:50:07.578Z,989.99
2016-03-09T01:51:07.566Z,989.97
2016-03-09T01:52:07.553Z,989.97
2016-03-09T01:53:07.572Z,989.95
2016-03-09T01:54:07.542Z,989.91
2016-03-09T01:55:07.545Z,989.88
2016-03-09T01:56:07.547Z,989.88
2016-03-09T01:57:07.536Z,989.85
2016-03-09T01:58:07.536Z,989.82
2016-03-09T01:59:07.520Z,989.83
2016-03-09T02:00:07.512Z,989.82
2016-03-09T02:01:07.494Z,989.84
2016-03-09T02:02:07.480Z,989.8
2016-03-09T02:03:07.482Z,989.85
2016-03-09T02:04:07.470Z,989.81
2016-03-09T02:05:07.457Z,989.76
2016-03-09T02:06:07.464Z,989.77
2016-03-09T02:07:07.452Z,989.7
2016-03-09T02:08:07.439Z,989.72
2016-03-09T02:09:07.442Z,989.66
2016-03-09T02:10:07.450Z,989.68
2016-03-09T02:11:07.439Z,989.67
2016-03-09T02:12:07.427Z,989.69
2016-03-09T02:13:07.415Z,989.69
2016-03-09T02:14:07.418Z,989.72
2016-03-09T02:15:07.405Z,989.7
2016-03-09T02:16:07.391Z,989.68
2016-03-09T02:17:07.395Z,989.67
2016-03-09T02:18:07.382Z,989.64
2016-03-09T02:19:07.369Z,989.64
2016-03-09T02:20:07.371Z,989.64
2016-03-09T02:21:07.359Z,989.63
2016-03-09T02:22:07.346Z,989.65
2016-03-09T02:23:07.348Z,989.7
2016-03-09T02:24:07.335Z,989.65
2016-03-09T02:25:07.338Z,989.67
2016-03-09T02:26:07.325Z,989.62
2016-03-09T02:27:07.328Z,989.62
2016-03-09T02:28:07.315Z,989.61
2016-03-09T02:29:07.317Z,989.58
2016-03-09T02:30:07.304Z,989.59
2016-03-09T02:31:07.292Z,989.58
2016-03-09T02:32:07.295Z,989.53
2016-03-09T02:33:07.281Z,989.55
2016-03-09T02:34:07.268Z,989.51
2016-03-09T02:35:07.272Z,989.52
2016-03-09T02:36:07.274Z,989.51
2016-03-09T02:37:07.261Z,989.48
2016-03-09T02:38:07.264Z,989.48
2016-03-09T02:39:07.250Z,989.47
2016-03-09T02:40:07.238Z,989.5
2016-03-09T02:41:07.224Z,989.46
2016-03-09T02:42:07.228Z,989.43
2016-03-09T02:43:07.214Z,989.47
2016-03-09T02:44:07.201Z,989.43
2016-03-09T02:45:07.220Z,989.42
2016-03-09T02:46:07.191Z,989.39
2016-03-09T02:47:07.194Z,989.37
2016-03-09T02:48:07.197Z,989.37
2016-03-09T02:49:07.184Z,989.32
2016-03-09T02:50:07.171Z,989.3
2016-03-09T02:51:07.157Z,989.26
2016-03-09T02:52:07.161Z,989.27
2016-03-09T02:53:07.148Z,989.25
2016-03-09T02:54:07.150Z,989.29
2016-03-09T02:55:07.137Z,989.24
2016-03-09T02:56:07.140Z,989.29
2016-03-09T02:57:07.126Z,989.28
2016-03-09T02:58:07.115Z,989.2
2016-03-09T02:59:07.117Z,989.22
2016-03-09T03:00:07.104Z,989.18
2016-03-09T03:01:07.091Z,989.12
2016-03-09T03:02:07.094Z,989.11
2016-03-09T03:03:07.081Z,989.08
2016-03-09T03:04:07.083Z,989.02
2016-03-09T03:05:07.086Z,989.05
2016-03-09T03:06:07.058Z,988.97
2016-03-09T03:07:07.060Z,988.95
2016-03-09T03:08:07.047Z,988.98
2016-03-09T03:09:07.050Z,988.96
2016-03-09T03:10:07.053Z,988.97
2016-03-09T03:11:07.024Z,988.95
2016-03-09T03:12:07.027Z,988.9
2016-03-09T03:13:07.014Z,988.89
2016-03-09T03:14:07.016Z,988.89
2016-03-09T03:15:07.004Z,988.85
2016-03-09T03:16:06.991Z,988.88
2016-03-09T03:17:06.994Z,988.87
2016-03-09T03:18:06.980Z,988.87
2016-03-09T03:19:06.983Z,988.84
2016-03-09T03:20:06.971Z,988.83
2016-03-09T03:21:06.957Z,988.84
2016-03-09T03:22:06.960Z,988.84
2016-03-09T03:23:06.947Z,988.85
2016-03-09T03:24:06.949Z,988.87
2016-03-09T03:25:06.937Z,988.83
2016-03-09T03:26:06.939Z,988.83
2016-03-09T03:27:06.927Z,988.81
2016-03-09T03:28:06.929Z,988.75
2016-03-09T03:29:06.916Z,988.76
2016-03-09T03:30:06.903Z,988.76
2016-03-09T03:31:06.906Z,988.71
2016-03-09T03:32:06.892Z,988.71
2016-03-09T03:33:06.896Z,988.72
2016-03-09T03:34:06.898Z,988.73
2016-03-09T03:35:06.870Z,988.74
2016-03-09T03:36:06.872Z,988.71
2016-03-09T03:37:06.859Z,988.64
2016-03-09T03:38:06.862Z,988.65
2016-03-09T03:39:06.849Z,988.63
2016-03-09T03:40:06.837Z,988.65
2016-03-09T03:41:06.839Z,988.61
2016-03-09T03:42:06.827Z,988.61
2016-03-09T03:43:06.813Z,988.59
2016-03-09T03:44:06.816Z,988.54
2016-03-09T03:45:06.803Z,988.58
2016-03-09T03:46:06.805Z,988.58
2016-03-09T03:47:06.793Z,988.51
2016-03-09T03:48:06.796Z,988.46
2016-03-09T03:49:06.782Z,988.5
2016-03-09T03:50:06.770Z,988.49
2016-03-09T03:51:06.772Z,988.46
2016-03-09T03:52:06.760Z,988.41
2016-03-09T03:53:06.762Z,988.41
2016-03-09T03:54:06.749Z,988.39
2016-03-09T03:55:06.752Z,988.39
2016-03-09T03:56:06.739Z,988.37
2016-03-09T03:57:06.726Z,988.36
2016-03-09T03:58:06.713Z,988.36
2016-03-09T03:59:06.716Z,988.36
2016-03-09T04:00:06.703Z,988.39
2016-03-09T04:01:06.690Z,988.39
2016-03-09T04:02:06.692Z,988.38
2016-03-09T04:03:06.679Z,988.32
2016-03-09T04:04:06.681Z,988.32
2016-03-09T04:05:06.670Z,988.35
2016-03-09T04:06:06.656Z,988.31
2016-03-09T04:07:06.659Z,988.31
2016-03-09T04:08:06.646Z,988.25
2016-03-09T04:09:06.649Z,988.27
2016-03-09T04:10:06.636Z,988.24
2016-03-09T04:11:06.622Z,988.18
2016-03-09T04:12:06.626Z,988.22
2016-03-09T04:13:06.613Z,988.14
2016-03-09T04:14:06.615Z,988.17
2016-03-09T04:15:06.602Z,988.14
2016-03-09T04:16:06.589Z,988.1
2016-03-09T04:17:06.592Z,988.1
2016-03-09T04:18:06.579Z,988.09
2016-03-09T04:19:06.582Z,988.09
2016-03-09T04:20:06.569Z,988.04
2016-03-09T04:21:06.571Z,988.09
2016-03-09T04:22:06.560Z,988.12
2016-03-09T04:23:06.546Z,988.12
2016-03-09T04:24:06.549Z,988.09
2016-03-09T04:25:06.535Z,988.06
2016-03-09T04:26:06.523Z,988.03
2016-03-09T04:27:06.526Z,988.07
2016-03-09T04:28:06.505Z,988.05
2016-03-09T04:29:06.479Z,987.98
2016-03-09T04:30:06.470Z,987.98
2016-03-09T04:31:06.446Z,988.03
2016-03-09T04:32:06.437Z,988.02
2016-03-09T04:33:06.417Z,988.01
2016-03-09T04:34:06.400Z,987.99
2016-03-09T04:35:06.399Z,987.96
2016-03-09T04:36:06.381Z,987.98
2016-03-09T04:37:06.380Z,987.99
2016-03-09T04:38:06.396Z,987.99
2016-03-09T04:39:06.350Z,987.96
2016-03-09T04:40:06.366Z,987.95
2016-03-09T04:41:06.337Z,987.92
2016-03-09T04:42:06.322Z,987.9
2016-03-09T04:43:06.323Z,987.9
2016-03-09T04:44:06.310Z,987.94
2016-03-09T04:45:06.312Z,987.94
2016-03-09T04:46:06.298Z,987.89
2016-03-09T04:47:06.285Z,987.89
2016-03-09T04:48:06.286Z,987.88
2016-03-09T04:49:06.273Z,987.88
2016-03-09T04:50:06.275Z,987.82
2016-03-09T04:51:06.262Z,987.84
2016-03-09T04:52:06.249Z,987.87
2016-03-09T04:53:06.251Z,987.81
2016-03-09T04:54:06.238Z,987.8
2016-03-09T04:55:06.225Z,987.81
2016-03-09T04:56:06.260Z,987.85
2016-03-09T04:57:06.230Z,987.79
2016-03-09T04:58:06.202Z,987.77
2016-03-09T04:59:06.204Z,987.8
2016-03-09T05:00:06.208Z,987.79
2016-03-09T05:01:06.195Z,987.73
2016-03-09T05:02:06.182Z,987.74
2016-03-09T05:03:06.185Z,987.7
2016-03-09T05:04:06.171Z,987.71
2016-03-09T05:05:06.159Z,987.7
2016-03-09T05:06:06.145Z,987.7
2016-03-09T05:07:06.138Z,987.74
2016-03-09T05:08:06.141Z,987.73
2016-03-09T05:09:06.128Z,987.7
2016-03-09T05:10:06.116Z,987.73
2016-03-09T05:11:06.118Z,987.71
2016-03-09T05:12:06.105Z,987.73
2016-03-09T05:13:06.108Z,987.75
2016-03-09T05:14:06.095Z,987.75
2016-03-09T05:15:06.082Z,987.74
2016-03-09T05:16:06.084Z,987.78
2016-03-09T05:17:06.072Z,987.72
2016-03-09T05:18:06.075Z,987.71
2016-03-09T05:19:06.062Z,987.7
2016-03-09T05:20:06.048Z,987.66
2016-03-09T05:21:06.036Z,987.66
2016-03-09T05:22:06.039Z,987.64
2016-03-09T05:23:06.041Z,987.63
2016-03-09T05:24:06.059Z,987.63
2016-03-09T05:25:06.014Z,987.59
2016-03-09T05:26:06.002Z,987.63
2016-03-09T05:27:06.005Z,987.61
2016-03-09T05:28:05.989Z,987.63
2016-03-09T05:29:05.992Z,987.61
2016-03-09T05:30:05.980Z,987.61
2016-03-09T05:31:05.967Z,987.63
2016-03-09T05:32:05.969Z,987.64
2016-03-09T05:33:05.956Z,987.59
2016-03-09T05:34:05.958Z,987.61
2016-03-09T05:35:05.946Z,987.62
2016-03-09T05:36:05.933Z,987.61
2016-03-09T05:37:05.935Z,987.61
2016-03-09T05:38:05.922Z,987.59
2016-03-09T05:39:05.909Z,987.58
2016-03-09T05:40:05.913Z,987.56
2016-03-09T05:41:05.900Z,987.53
2016-03-09T05:42:05.887Z,987.54
2016-03-09T05:43:05.890Z,987.51
2016-03-09T05:44:05.893Z,987.55
2016-03-09T05:45:05.863Z,987.56
2016-03-09T05:46:05.866Z,987.53
2016-03-09T05:47:05.853Z,987.5
2016-03-09T05:48:05.840Z,987.46
2016-03-09T05:49:05.842Z,987.5
2016-03-09T05:50:05.829Z,987.46
2016-03-09T05:51:05.818Z,987.42
2016-03-09T05:52:05.820Z,987.48
2016-03-09T05:53:05.806Z,987.46
2016-03-09T05:54:05.825Z,987.41
2016-03-09T05:55:05.797Z,987.4
2016-03-09T05:56:05.783Z,987.42
2016-03-09T05:57:05.786Z,987.4
2016-03-09T05:58:05.773Z,987.36
2016-03-09T05:59:05.761Z,987.33
2016-03-09T06:00:05.764Z,987.34
2016-03-09T06:01:05.751Z,987.41
2016-03-09T06:02:05.737Z,987.35
2016-03-09T06:03:05.739Z,987.37
2016-03-09T06:04:05.728Z,987.33
2016-03-09T06:05:05.715Z,987.27
2016-03-09T06:06:05.717Z,987.27
2016-03-09T06:07:05.705Z,987.31
2016-03-09T06:08:05.691Z,987.3
2016-03-09T06:09:05.694Z,987.29
2016-03-09T06:10:05.681Z,987.22
2016-03-09T06:11:05.684Z,987.19
2016-03-09T06:12:05.672Z,987.29
2016-03-09T06:13:05.658Z,987.3
2016-03-09T06:14:05.661Z,987.3
2016-03-09T06:15:05.647Z,987.3
2016-03-09T06:16:05.635Z,987.26
2016-03-09T06:17:05.637Z,987.29
2016-03-09T06:18:05.625Z,987.25
2016-03-09T06:19:05.612Z,987.22
2016-03-09T06:20:05.615Z,987.24
2016-03-09T06:21:05.602Z,987.2
2016-03-09T06:22:05.604Z,987.23
2016-03-09T06:23:05.607Z,987.23
2016-03-09T06:24:05.578Z,987.27
2016-03-09T06:25:05.581Z,987.25
2016-03-09T06:26:05.568Z,987.28
2016-03-09T06:27:05.571Z,987.3
2016-03-09T06:28:05.558Z,987.26
2016-03-09T06:29:05.545Z,987.26
2016-03-09T06:30:05.548Z,987.21
2016-03-09T06:31:05.534Z,987.19
2016-03-09T06:32:05.522Z,987.21
2016-03-09T06:33:05.524Z,987.21
2016-03-09T06:34:05.528Z,987.14
2016-03-09T06:35:05.515Z,987.14
2016-03-09T06:36:05.501Z,987.1
2016-03-09T06:37:05.489Z,987.11
2016-03-09T06:38:05.491Z,987.09
2016-03-09T06:39:05.478Z,987.12
2016-03-09T06:40:05.480Z,987.1
2016-03-09T06:41:05.467Z,987.08
2016-03-09T06:42:05.455Z,987.1
2016-03-09T06:43:05.458Z,987.08
2016-03-09T06:44:05.445Z,987.07
2016-03-09T06:45:05.447Z,987.05
2016-03-09T06:46:05.435Z,987.03
2016-03-09T06:47:05.437Z,986.99
2016-03-09T06:48:05.424Z,987
2016-03-09T06:49:05.410Z,986.96
2016-03-09T06:50:05.414Z,986.98
2016-03-09T06:51:05.417Z,986.92
2016-03-09T06:52:05.388Z,986.88
2016-03-09T06:53:05.391Z,986.89
2016-03-09T06:54:05.393Z,986.91
2016-03-09T06:55:05.380Z,986.85
2016-03-09T06:56:05.367Z,986.88
2016-03-09T06:57:05.370Z,986.8
2016-03-09T06:58:05.358Z,986.85
2016-03-09T06:59:05.360Z,986.86
2016-03-09T07:00:05.348Z,986.89
2016-03-09T07:01:05.350Z,986.85
2016-03-09T07:02:05.352Z,986.83
2016-03-09T07:03:05.323Z,986.85
2016-03-09T07:04:05.327Z,986.82
2016-03-09T07:05:05.314Z,986.82
2016-03-09T07:06:05.317Z,986.81
2016-03-09T07:07:05.303Z,986.79
2016-03-09T07:08:05.306Z,986.79
2016-03-09T07:09:05.292Z,986.73
2016-03-09T07:10:05.295Z,986.75
2016-03-09T07:11:05.284Z,986.75
2016-03-09T07:12:05.270Z,986.74
2016-03-09T07:13:05.273Z,986.7
2016-03-09T07:14:05.260Z,986.75
2016-03-09T07:15:05.263Z,986.68
2016-03-09T07:16:05.249Z,986.71
2016-03-09T07:17:05.252Z,986.69
2016-03-09T07:18:05.238Z,986.69
2016-03-09T07:19:05.227Z,986.68
2016-03-09T07:20:05.230Z,986.69
2016-03-09T07:21:05.216Z,986.68
2016-03-09T07:22:05.219Z,986.67
2016-03-09T07:23:05.221Z,986.66
2016-03-09T07:24:05.224Z,986.66
2016-03-09T07:25:05.210Z,986.61
2016-03-09T07:26:05.198Z,986.62
2016-03-09T07:27:05.186Z,986.56
2016-03-09T07:28:05.188Z,986.59
2016-03-09T07:29:05.176Z,986.58
2016-03-09T07:30:05.178Z,986.54
2016-03-09T07:31:05.165Z,986.51
2016-03-09T07:32:05.168Z,986.46
2016-03-09T07:33:05.170Z,986.48
2016-03-09T07:34:05.173Z,986.46
2016-03-09T07:35:05.145Z,986.45
2016-03-09T07:36:05.147Z,986.45
2016-03-09T07:37:05.134Z,986.46
2016-03-09T07:38:05.152Z,986.43
2016-03-09T07:39:05.139Z,986.4
2016-03-09T07:40:05.127Z,986.41
2016-03-09T07:41:05.129Z,986.32
2016-03-09T07:42:05.116Z,986.33
2016-03-09T07:43:05.119Z,986.27
2016-03-09T07:44:05.121Z,986.25
2016-03-09T07:45:05.125Z,986.23
2016-03-09T07:46:05.111Z,986.23
2016-03-09T07:47:05.114Z,986.19
2016-03-09T07:48:05.117Z,986.18
2016-03-09T07:49:05.119Z,986.12
2016-03-09T07:50:05.122Z,986.12
2016-03-09T07:51:05.125Z,986.13
2016-03-09T07:52:05.128Z,986.1
2016-03-09T07:53:05.115Z,986.1
2016-03-09T07:54:05.118Z,986.09
2016-03-09T07:55:05.135Z,986.08
2016-03-09T07:56:05.123Z,986.06
2016-03-09T07:57:05.126Z,986.04
2016-03-09T07:58:05.129Z,986
2016-03-09T07:59:05.131Z,985.93
2016-03-09T08:00:05.134Z,985.94
2016-03-09T08:01:05.151Z,985.89
2016-03-09T08:02:05.139Z,985.82
2016-03-09T08:03:05.157Z,985.81
2016-03-09T08:04:05.145Z,985.78
2016-03-09T08:05:05.162Z,985.78
2016-03-09T08:06:05.150Z,985.77
2016-03-09T08:07:05.153Z,985.76
2016-03-09T08:08:05.155Z,985.74
2016-03-09T08:09:05.173Z,985.77
2016-03-09T08:10:05.176Z,985.71
2016-03-09T08:11:05.163Z,985.75
2016-03-09T08:12:05.166Z,985.75
2016-03-09T08:13:05.184Z,985.7
2016-03-09T08:14:05.202Z,985.65
2016-03-09T08:15:05.189Z,985.63
2016-03-09T08:16:05.208Z,985.62
2016-03-09T08:17:05.195Z,985.64
2016-03-09T08:18:05.197Z,985.57
2016-03-09T08:19:05.200Z,985.62
2016-03-09T08:20:05.202Z,985.61
2016-03-09T08:21:05.205Z,985.56
2016-03-09T08:22:05.208Z,985.61
2016-03-09T08:23:05.211Z,985.58
2016-03-09T08:24:05.229Z,985.56
2016-03-09T08:25:05.232Z,985.54
2016-03-09T08:26:05.235Z,985.47
2016-03-09T08:27:05.237Z,985.47
2016-03-09T08:28:05.240Z,985.45
2016-03-09T08:29:05.243Z,985.43
2016-03-09T08:30:05.245Z,985.43
2016-03-09T08:31:05.248Z,985.42
2016-03-09T08:32:05.251Z,985.38
2016-03-09T08:33:05.254Z,985.39
2016-03-09T08:34:05.256Z,985.34
2016-03-09T08:35:05.243Z,985.34
2016-03-09T08:36:05.245Z,985.31
2016-03-09T08:37:05.248Z,985.32
2016-03-09T08:38:05.252Z,985.34
2016-03-09T08:39:05.254Z,985.32
2016-03-09T08:40:05.256Z,985.27
2016-03-09T08:41:05.259Z,985.28
2016-03-09T08:42:05.246Z,985.23
2016-03-09T08:43:05.250Z,985.23
2016-03-09T08:44:05.253Z,985.23
2016-03-09T08:45:05.255Z,985.2
2016-03-09T08:46:05.257Z,985.21
2016-03-09T08:47:05.244Z,985.18
2016-03-09T08:48:05.247Z,985.21
2016-03-09T08:49:05.250Z,985.17
2016-03-09T08:50:05.253Z,985.18
2016-03-09T08:51:05.239Z,985.15
2016-03-09T08:52:05.242Z,985.1
2016-03-09T08:53:05.245Z,985.06
2016-03-09T08:54:05.247Z,985.05
2016-03-09T08:55:05.235Z,985.01
2016-03-09T08:56:05.237Z,985.04
2016-03-09T08:57:05.240Z,985.05
2016-03-09T08:58:05.227Z,985
2016-03-09T08:59:05.229Z,984.99
2016-03-09T09:00:05.232Z,984.96
2016-03-09T09:01:05.235Z,984.93
2016-03-09T09:02:05.238Z,984.95
2016-03-09T09:03:05.224Z,984.88
2016-03-09T09:04:05.243Z,984.86
2016-03-09T09:05:05.261Z,984.78
2016-03-09T09:06:05.218Z,984.81
2016-03-09T09:07:05.220Z,984.77
2016-03-09T09:08:05.207Z,984.77
2016-03-09T09:09:05.209Z,984.81
2016-03-09T09:10:05.212Z,984.77
2016-03-09T09:11:05.200Z,984.73
2016-03-09T09:12:05.203Z,984.78
2016-03-09T09:13:05.206Z,984.77
2016-03-09T09:14:05.192Z,984.72
2016-03-09T09:15:05.195Z,984.71
2016-03-09T09:16:05.198Z,984.7
2016-03-09T09:17:05.184Z,984.62
2016-03-09T09:18:05.187Z,984.65
2016-03-09T09:19:05.189Z,984.61
2016-03-09T09:20:05.192Z,984.6
2016-03-09T09:21:05.180Z,984.59
2016-03-09T09:22:05.166Z,984.55
2016-03-09T09:23:05.169Z,984.54
2016-03-09T09:24:05.344Z,984.46
2016-03-09T09:25:05.174Z,984.5
2016-03-09T09:26:05.161Z,984.51
2016-03-09T09:27:05.164Z,984.45
2016-03-09T09:28:05.152Z,984.47
2016-03-09T09:29:05.154Z,984.42
2016-03-09T09:30:05.157Z,984.46
2016-03-09T09:31:05.143Z,984.44
2016-03-09T09:32:05.147Z,984.4
2016-03-09T09:33:05.149Z,984.37
2016-03-09T09:34:05.137Z,984.37
2016-03-09T09:35:05.139Z,984.29
2016-03-09T09:36:05.142Z,984.37
2016-03-09T09:37:05.129Z,984.31
2016-03-09T09:38:05.132Z,984.27
2016-03-09T09:39:05.134Z,984.25
2016-03-09T09:40:05.121Z,984.24
2016-03-09T09:41:05.124Z,984.23
2016-03-09T09:42:05.126Z,984.19
2016-03-09T09:43:05.114Z,984.2
2016-03-09T09:44:05.117Z,984.15
2016-03-09T09:45:05.135Z,984.16
2016-03-09T09:46:05.106Z,984.16
2016-03-09T09:47:05.109Z,984.16
2016-03-09T09:48:05.111Z,984.12
2016-03-09T09:49:05.098Z,984.09
2016-03-09T09:50:05.101Z,984.07
2016-03-09T09:51:05.103Z,984.03
2016-03-09T09:52:05.092Z,983.98
2016-03-09T09:53:05.094Z,984.04
2016-03-09T09:54:05.097Z,984.02
2016-03-09T09:55:05.099Z,983.96
2016-03-09T09:56:05.102Z,983.98
2016-03-09T09:57:05.089Z,983.9
2016-03-09T09:58:05.091Z,983.88
2016-03-09T09:59:05.094Z,983.88
2016-03-09T10:00:05.112Z,983.89
2016-03-09T10:01:05.085Z,983.87
2016-03-09T10:02:05.071Z,983.8
2016-03-09T10:03:05.074Z,983.82
2016-03-09T10:04:05.077Z,983.81
2016-03-09T10:05:05.079Z,983.78
2016-03-09T10:06:05.066Z,983.83
2016-03-09T10:07:05.074Z,983.79
2016-03-09T10:08:05.063Z,983.76
2016-03-09T10:09:05.081Z,983.73
2016-03-09T10:10:05.068Z,983.73
2016-03-09T10:11:05.055Z,983.71
2016-03-09T10:12:05.058Z,983.66
2016-03-09T10:13:05.061Z,983.69
2016-03-09T10:14:05.047Z,983.67
2016-03-09T10:15:05.066Z,983.65
2016-03-09T10:16:05.053Z,983.56
2016-03-09T10:17:05.056Z,983.62
2016-03-09T10:18:05.043Z,983.55
2016-03-09T10:19:05.045Z,983.6
2016-03-09T10:20:05.048Z,983.56
2016-03-09T10:21:05.051Z,983.56
2016-03-09T10:22:05.038Z,983.5
2016-03-09T10:23:05.040Z,983.45
2016-03-09T10:24:05.044Z,983.45
2016-03-09T10:25:05.046Z,983.45
2016-03-09T10:26:05.032Z,983.39
2016-03-09T10:27:05.035Z,983.38
2016-03-09T10:28:05.038Z,983.35
2016-03-09T10:29:05.041Z,983.35
2016-03-09T10:30:05.028Z,983.32
2016-03-09T10:31:05.031Z,983.26
2016-03-09T10:32:05.034Z,983.26
2016-03-09T10:33:05.020Z,983.22
2016-03-09T10:34:05.023Z,983.23
2016-03-09T10:35:05.026Z,983.22
2016-03-09T10:36:05.013Z,983.22
2016-03-09T10:37:05.016Z,983.16
2016-03-09T10:38:05.018Z,983.11
2016-03-09T10:39:05.022Z,983.11
2016-03-09T10:40:05.024Z,983.06
2016-03-09T10:41:05.011Z,983.09
2016-03-09T10:42:05.013Z,983.07
2016-03-09T10:43:05.016Z,983.02
2016-03-09T10:44:05.019Z,983.05
2016-03-09T10:45:05.005Z,983
2016-03-09T10:46:05.009Z,983
2016-03-09T10:47:05.011Z,982.95
2016-03-09T10:48:05.014Z,982.95
2016-03-09T10:49:05.016Z,982.94
2016-03-09T10:50:05.004Z,982.92
2016-03-09T10:51:05.007Z,982.91
2016-03-09T10:52:05.009Z,982.83
2016-03-09T10:53:04.996Z,982.99
2016-03-09T10:54:04.998Z,982.86
2016-03-09T10:55:05.002Z,982.87
2016-03-09T10:56:05.020Z,982.9
2016-03-09T10:57:05.007Z,982.8
2016-03-09T10:58:05.010Z,982.75
2016-03-09T10:59:04.997Z,982.75
2016-03-09T11:00:04.999Z,982.71
2016-03-09T11:01:04.986Z,982.69
2016-03-09T11:02:04.990Z,982.63
2016-03-09T11:03:04.992Z,982.59
2016-03-09T11:04:04.995Z,982.64
2016-03-09T11:05:04.997Z,982.56
2016-03-09T11:06:04.984Z,982.56
2016-03-09T11:07:04.987Z,982.57
2016-03-09T11:08:04.989Z,982.52
2016-03-09T11:09:04.992Z,982.53
2016-03-09T11:10:04.995Z,982.56
2016-03-09T11:11:04.983Z,982.59
2016-03-09T11:12:04.985Z,982.54
2016-03-09T11:13:04.972Z,982.52
2016-03-09T11:14:04.975Z,982.51
2016-03-09T11:15:04.977Z,982.44
2016-03-09T11:16:04.980Z,982.42
2016-03-09T11:17:04.966Z,982.44
2016-03-09T11:18:04.969Z,982.38
2016-03-09T11:19:04.972Z,982.4
2016-03-09T11:20:04.975Z,982.41
2016-03-09T11:21:04.963Z,982.36
2016-03-09T11:22:04.965Z,982.36
2016-03-09T11:23:04.967Z,982.35
2016-03-09T11:24:05.329Z,982.29
2016-03-09T11:25:04.973Z,982.32
2016-03-09T11:26:04.960Z,982.28
2016-03-09T11:27:04.962Z,982.33
2016-03-09T11:28:04.965Z,982.24
2016-03-09T11:29:04.968Z,982.29
2016-03-09T11:30:04.971Z,982.23
2016-03-09T11:31:04.957Z,982.24
2016-03-09T11:32:04.960Z,982.15
2016-03-09T11:33:04.963Z,982.14
2016-03-09T11:34:04.950Z,982.14
2016-03-09T11:35:04.953Z,982.15
2016-03-09T11:36:04.956Z,982.11
2016-03-09T11:37:04.959Z,982.05
2016-03-09T11:38:04.961Z,982.05
2016-03-09T11:39:04.947Z,981.97
2016-03-09T11:40:04.951Z,982.08
2016-03-09T11:41:04.953Z,982.04
2016-03-09T11:42:04.956Z,982.02
2016-03-09T11:43:04.944Z,982.09
2016-03-09T11:44:04.946Z,982.08
2016-03-09T11:45:04.949Z,982.07
2016-03-09T11:46:04.951Z,982.01
2016-03-09T11:47:04.955Z,982
2016-03-09T11:48:04.941Z,982.06
2016-03-09T11:49:04.944Z,982.04
2016-03-09T11:50:04.946Z,982.09
2016-03-09T11:51:04.949Z,982.05
2016-03-09T11:52:04.936Z,981.96
2016-03-09T11:53:04.938Z,982.02
2016-03-09T11:54:04.942Z,982.01
2016-03-09T11:55:04.944Z,982.01
2016-03-09T11:56:04.947Z,982.12
2016-03-09T11:57:04.934Z,982.07
2016-03-09T11:58:05.296Z,982.11
2016-03-09T11:59:04.939Z,982.03
2016-03-09T12:00:04.942Z,982.01
2016-03-09T12:01:04.944Z,981.89
2016-03-09T12:02:04.932Z,981.8
2016-03-09T12:03:04.934Z,981.85
2016-03-09T12:04:04.937Z,981.81
2016-03-09T12:05:04.940Z,981.81
2016-03-09T12:06:04.942Z,981.91
2016-03-09T12:07:04.945Z,981.8
2016-03-09T12:08:04.932Z,981.77
2016-03-09T12:09:04.951Z,981.77
2016-03-09T12:10:04.937Z,981.77
2016-03-09T12:11:04.939Z,981.7
2016-03-09T12:12:04.942Z,981.6
2016-03-09T12:13:04.930Z,981.65
2016-03-09T12:14:04.933Z,981.66
2016-03-09T12:15:04.936Z,981.65
2016-03-09T12:16:04.938Z,981.64
2016-03-09T12:17:04.941Z,981.59
2016-03-09T12:18:04.944Z,981.63
2016-03-09T12:19:04.930Z,981.64
2016-03-09T12:20:04.933Z,981.54
2016-03-09T12:21:04.936Z,981.58
2016-03-09T12:22:04.938Z,981.61
2016-03-09T12:23:04.926Z,981.63
2016-03-09T12:24:04.929Z,981.57
2016-03-09T12:25:04.947Z,981.56
2016-03-09T12:26:04.935Z,981.49
2016-03-09T12:27:04.937Z,981.46
2016-03-09T12:28:04.939Z,981.41
2016-03-09T12:29:04.943Z,981.42
2016-03-09T12:30:04.929Z,981.46
2016-03-09T12:31:04.932Z,981.38